Time;durP1;ratioP1;P1;durP2;ratioP2;P2;SDS_P1;SDS_P2;PMS_P1;PMS_P2;Temp;Humidity;BMP_temperature;BMP_pressure;BME280_temperature;BME280_humidity;BME280_pressure;Samples;Min_cycle;Max_cycle;Signal;HPM_P1;HPM_P2
2023/05/30 00:02:11;;;;;;;4.90;2.70;;;;;;;20.00;75.36;98998.63;82224;1291;3011675;-63
2023/05/30 00:04:39;;;;;;;5.80;2.50;;;;;;;19.82;75.64;98998.77;80944;1292;3025697;-64
2023/05/30 00:07:06;;;;;;;5.70;3.20;;;;;;;19.62;76.46;98998.93;82204;1291;3012910;-66
2023/05/30 00:09:33;;;;;;;4.70;2.80;;;;;;;19.46;77.27;98997.55;82141;1292;3011425;-68
2023/05/30 00:12:01;;;;;;;6.10;2.80;;;;;;;19.27;78.55;98997.55;80891;1293;3026585;-68
2023/05/30 00:14:27;;;;;;;1.70;1.40;;;;;;;19.21;79.77;98997.83;82131;1292;3018349;-64
2023/05/30 00:16:56;;;;;;;3.50;2.10;;;;;;;19.73;78.77;98995.10;82091;1292;3011257;-62
2023/05/30 00:19:24;;;;;;;3.90;2.00;;;;;;;20.18;77.12;98996.90;80878;1293;3050306;-72
2023/05/30 00:21:50;;;;;;;4.00;2.70;;;;;;;20.18;76.55;98998.46;82160;1293;3012670;-65
2023/05/30 00:24:17;;;;;;;6.70;3.40;;;;;;;19.96;77.30;98994.58;82092;1297;3011250;-64
2023/05/30 00:26:45;;;;;;;6.20;2.80;;;;;;;19.78;77.94;98992.91;80880;1292;3026009;-66
2023/05/30 00:29:11;;;;;;;4.90;2.70;;;;;;;19.58;78.98;98991.81;82181;1292;3013121;-70
2023/05/30 00:31:39;;;;;;;4.60;3.20;;;;;;;19.51;79.40;98991.84;82146;1292;3011197;-63
2023/05/30 00:34:07;;;;;;;3.60;1.90;;;;;;;19.37;80.08;98992.40;80852;1293;3050126;-67
2023/05/30 00:36:34;;;;;;;6.20;2.50;;;;;;;19.84;78.72;98990.55;82098;1294;3012708;-70
2023/05/30 00:39:01;;;;;;;5.00;3.00;;;;;;;20.29;77.10;98991.55;82142;1293;3011381;-64
2023/05/30 00:41:29;;;;;;;7.30;3.20;;;;;;;20.31;76.45;98994.02;80872;1292;3026789;-68
2023/05/30 00:43:55;;;;;;;5.50;2.70;;;;;;;20.17;76.83;98991.70;82155;1292;3018214;-65
2023/05/30 00:46:23;;;;;;;8.80;3.50;;;;;;;20.01;76.97;98993.20;82102;1293;3011219;-66
2023/05/30 00:48:52;;;;;;;8.40;3.10;;;;;;;19.80;77.75;98991.11;80846;1292;3049254;-64
2023/05/30 00:51:19;;;;;;;4.70;3.00;;;;;;;19.56;78.59;98991.88;82054;1297;3012293;-69
2023/05/30 00:53:45;;;;;;;4.10;2.50;;;;;;;19.40;79.19;98994.05;82072;1294;3011557;-66
2023/05/30 00:56:14;;;;;;;7.90;2.50;;;;;;;19.80;78.16;98995.23;80811;1293;3025441;-69
2023/05/30 00:58:40;;;;;;;4.00;2.40;;;;;;;20.28;76.02;98993.65;82056;1292;3011263;-66
2023/05/30 01:01:07;;;;;;;5.80;3.60;;;;;;;20.29;75.83;98986.09;82117;1293;3011221;-66
2023/05/30 01:03:36;;;;;;;6.50;3.60;;;;;;;20.06;76.20;98988.59;80770;1295;3049520;-66
2023/05/30 01:06:06;;;;;;;9.50;3.90;;;;;;;19.78;77.09;98990.15;81958;1300;3012620;-66
2023/05/30 01:08:35;;;;;;;11.10;4.20;;;;;;;19.57;78.00;98988.71;81670;1292;3010893;-61
2023/05/30 01:11:23;;;;;;;6.90;5.40;;;;;;;19.44;77.99;98990.48;82228;1292;3013050;-65
2023/05/30 01:14:04;;;;;;;8.30;6.50;;;;;;;19.26;78.75;98992.75;80828;1291;3056704;-67
2023/05/30 01:16:50;;;;;;;4.60;3.50;;;;;;;19.17;79.02;98992.42;80982;1291;3048350;-66
2023/05/30 01:19:35;;;;;;;6.80;4.70;;;;;;;19.79;77.23;98994.07;80819;1298;3052452;-63
2023/05/30 01:22:32;;;;;;;6.60;4.40;;;;;;;20.08;75.86;98992.27;80961;1292;3049727;-72
2023/05/30 01:25:23;;;;;;;9.70;6.30;;;;;;;19.96;75.70;98995.48;80945;1295;3052970;-65
2023/05/30 01:28:13;;;;;;;9.10;7.00;;;;;;;19.64;76.48;98990.86;81023;1292;3052469;-65
2023/05/30 01:30:44;;;;;;;10.70;7.50;;;;;;;19.29;77.63;98994.20;80840;1292;3068411;-66
2023/05/30 01:33:22;;;;;;;11.30;8.10;;;;;;;19.02;79.06;98991.83;80950;1291;3051458;-69
2023/05/30 01:35:50;;;;;;;12.30;7.90;;;;;;;18.75;80.54;98990.45;82225;1291;3018044;-69
2023/05/30 01:38:17;;;;;;;9.60;4.70;;;;;;;18.67;81.03;98991.13;82225;1292;3011408;-65
2023/05/30 01:40:53;;;;;;;8.30;4.60;;;;;;;19.05;80.42;98987.44;80956;1292;3050557;-70
2023/05/30 01:43:53;;;;;;;8.80;5.30;;;;;;;19.50;78.54;98981.27;80936;1293;3052158;-65
2023/05/30 01:46:34;;;;;;;9.40;5.50;;;;;;;19.37;78.72;98983.60;80982;1293;3052304;-73
2023/05/30 01:49:08;;;;;;;12.70;7.50;;;;;;;19.10;79.76;98983.50;80992;1291;3067957;-63
2023/05/30 01:52:03;;;;;;;11.90;8.90;;;;;;;18.83;81.26;98986.11;81700;1292;3011199;-63
2023/05/30 01:54:31;;;;;;;13.80;8.70;;;;;;;18.52;82.93;98987.48;80835;1291;3050937;-64
2023/05/30 01:57:05;;;;;;;7.40;4.50;;;;;;;18.39;83.74;98986.66;82210;1291;3013029;-67
2023/05/30 01:59:33;;;;;;;7.00;4.90;;;;;;;18.78;82.43;98986.64;80928;1292;3051334;-70
2023/05/30 02:02:00;;;;;;;7.00;5.00;;;;;;;19.20;81.11;98986.94;82083;1294;3012625;-69
2023/05/30 02:04:26;;;;;;;8.90;6.30;;;;;;;19.24;80.72;98985.66;82197;1295;3011516;-66
2023/05/30 02:06:54;;;;;;;10.00;5.80;;;;;;;19.11;81.36;98990.14;80928;1292;3024910;-64
2023/05/30 02:09:21;;;;;;;7.40;6.00;;;;;;;18.81;82.87;98987.77;82162;1292;3012520;-68
2023/05/30 02:11:48;;;;;;;9.00;6.40;;;;;;;18.59;83.88;98984.46;82068;1292;3011484;-65
2023/05/30 02:14:16;;;;;;;4.10;3.30;;;;;;;18.42;84.52;98977.70;80878;1294;3052357;-69
2023/05/30 02:16:44;;;;;;;6.40;3.70;;;;;;;18.76;84.97;98983.08;82085;1294;3013091;-68
2023/05/30 02:19:17;;;;;;;6.60;4.50;;;;;;;19.22;82.75;98990.23;78522;1294;3052008;-70
2023/05/30 02:21:43;;;;;;;6.10;5.00;;;;;;;19.19;82.52;98991.27;82120;1294;3018011;-63
2023/05/30 02:24:10;;;;;;;8.10;6.40;;;;;;;19.02;83.09;98983.89;82118;1292;3011395;-66
2023/05/30 02:26:38;;;;;;;10.40;7.50;;;;;;;18.72;84.02;98980.65;80892;1292;3025793;-67
2023/05/30 02:29:05;;;;;;;12.90;8.20;;;;;;;18.45;85.57;98979.67;82072;1295;3012639;-68
2023/05/30 02:31:32;;;;;;;5.40;3.80;;;;;;;18.30;87.03;98987.20;82067;1292;3011191;-69
2023/05/30 02:34:00;;;;;;;5.30;4.00;;;;;;;18.80;85.95;98998.47;80901;1293;3026213;-65
2023/05/30 02:36:27;;;;;;;7.10;4.90;;;;;;;19.32;83.53;98991.70;82114;1294;3012569;-66
2023/05/30 02:38:53;;;;;;;8.30;5.30;;;;;;;19.37;83.00;98987.14;82061;1293;3011136;-64
2023/05/30 02:41:22;;;;;;;9.20;6.50;;;;;;;19.29;82.86;98987.46;80845;1293;3026013;-69
2023/05/30 02:43:49;;;;;;;8.10;5.80;;;;;;;19.01;83.47;98986.55;82136;1293;3013235;-71
2023/05/30 02:46:16;;;;;;;7.90;5.40;;;;;;;18.74;84.79;98986.85;82145;1293;3011545;-67
2023/05/30 02:48:45;;;;;;;4.10;2.60;;;;;;;18.59;86.00;98995.48;80810;1297;3051568;-65
2023/05/30 02:51:12;;;;;;;4.50;2.90;;;;;;;19.00;85.02;98989.87;82108;1293;3012946;-68
2023/05/30 02:53:40;;;;;;;4.20;2.90;;;;;;;19.35;83.40;98994.09;82075;1293;3011708;-65
2023/05/30 02:56:08;;;;;;;4.70;3.30;;;;;;;19.35;83.43;98996.79;80815;1293;3050178;-64
2023/05/30 02:58:59;;;;;;;4.00;3.20;;;;;;;19.30;83.71;98995.47;80814;1293;3053973;-70
2023/05/30 03:01:45;;;;;;;3.50;2.50;;;;;;;19.06;84.20;98999.15;80861;1292;3049986;-67
2023/05/30 03:04:12;;;;;;;1.90;1.20;;;;;;;18.84;85.76;98995.77;82099;1294;3012463;-63
2023/05/30 03:06:50;;;;;;;2.10;1.50;;;;;;;19.17;85.07;98995.38;80930;1291;3067872;-67
2023/05/30 03:09:23;;;;;;;1.80;1.20;;;;;;;19.62;83.42;98995.14;80971;1291;3050949;-70
2023/05/30 03:11:50;;;;;;;2.60;2.00;;;;;;;19.62;82.76;98994.77;82201;1292;3013246;-68
2023/05/30 03:14:16;;;;;;;3.50;2.50;;;;;;;19.45;83.18;98993.73;82208;1291;3011483;-67
2023/05/30 03:16:45;;;;;;;4.50;2.30;;;;;;;19.30;83.66;98996.22;80961;1292;3026394;-66
2023/05/30 03:19:13;;;;;;;3.20;2.50;;;;;;;19.12;84.06;98994.69;82201;1292;3011157;-71
2023/05/30 03:21:40;;;;;;;1.60;1.30;;;;;;;18.87;85.84;98996.54;82275;1293;3011255;-62
2023/05/30 03:24:08;;;;;;;2.90;1.80;;;;;;;19.24;85.66;98995.57;80948;1292;3050812;-65
2023/05/30 03:26:40;;;;;;;3.70;2.30;;;;;;;19.70;83.40;98998.44;82201;1291;3011302;-66
2023/05/30 03:29:09;;;;;;;3.70;2.20;;;;;;;19.68;83.28;98998.48;80936;1292;3048826;-67
2023/05/30 03:31:36;;;;;;;3.40;2.20;;;;;;;19.60;83.17;98992.85;82291;1291;3018321;-67
2023/05/30 03:34:03;;;;;;;2.80;2.00;;;;;;;19.42;83.53;98995.45;82169;1292;3011340;-63
2023/05/30 03:36:31;;;;;;;4.00;2.30;;;;;;;19.28;83.74;98993.22;80965;1292;3052526;-67
2023/05/30 03:38:58;;;;;;;3.90;1.60;;;;;;;19.10;84.62;98994.85;82241;1292;3012831;-61
2023/05/30 03:41:25;;;;;;;3.10;1.90;;;;;;;19.51;83.63;98993.46;82222;1291;3011341;-69
2023/05/30 03:43:53;;;;;;;2.40;1.80;;;;;;;19.79;82.45;98993.38;80952;1292;3027347;-69
2023/05/30 03:46:21;;;;;;;3.30;2.10;;;;;;;19.94;82.20;98993.05;82217;1291;3012605;-68
2023/05/30 03:48:47;;;;;;;3.30;2.40;;;;;;;19.73;81.83;98994.80;82224;1291;3011318;-68
2023/05/30 03:51:15;;;;;;;4.10;2.40;;;;;;;19.50;82.87;98996.29;80949;1295;3052356;-69
2023/05/30 03:53:42;;;;;;;4.70;3.10;;;;;;;19.31;83.33;98999.13;82196;1292;3012621;-64
2023/05/30 03:56:08;;;;;;;4.80;2.40;;;;;;;19.15;84.06;98997.20;82241;1291;3011185;-68
2023/05/30 03:58:37;;;;;;;4.40;1.70;;;;;;;19.51;83.15;98998.81;80980;1291;3048657;-68
2023/05/30 04:01:04;;;;;;;2.10;1.70;;;;;;;19.95;80.61;98995.08;82261;1290;3012966;-68
2023/05/30 04:03:31;;;;;;;3.30;2.40;;;;;;;19.93;80.43;98998.68;82205;1295;3011302;-64
2023/05/30 04:05:59;;;;;;;3.30;2.50;;;;;;;19.75;81.03;98997.16;80995;1292;3027399;-70
2023/05/30 04:08:25;;;;;;;4.40;3.00;;;;;;;19.55;81.46;98992.67;82116;1294;3018766;-64
2023/05/30 04:10:52;;;;;;;6.10;3.30;;;;;;;19.38;81.83;98995.97;82181;1292;3010888;-70
2023/05/30 04:13:21;;;;;;;3.30;1.80;;;;;;;19.22;82.18;98994.40;80882;1292;3025701;-64
2023/05/30 04:15:49;;;;;;;3.60;2.10;;;;;;;19.48;82.36;98992.33;82090;1292;3012607;-71
2023/05/30 04:18:16;;;;;;;3.00;2.10;;;;;;;19.83;81.00;98993.16;82099;1294;3011850;-70
2023/05/30 04:20:44;;;;;;;3.00;2.60;;;;;;;19.86;80.81;98994.48;80915;1294;3051540;-67
2023/05/30 04:23:10;;;;;;;5.00;3.40;;;;;;;19.71;81.08;98995.77;82167;1292;3013164;-64
2023/05/30 04:25:37;;;;;;;3.70;3.00;;;;;;;19.50;81.77;99000.56;82052;1293;3011469;-67
2023/05/30 04:28:06;;;;;;;4.00;3.30;;;;;;;19.32;82.17;98998.88;80849;1294;3025826;-62
2023/05/30 04:30:35;;;;;;;4.50;2.00;;;;;;;19.14;83.01;98997.73;82161;1292;3011215;-69
2023/05/30 04:33:04;;;;;;;3.60;2.10;;;;;;;19.38;82.77;99003.23;80874;1294;3051949;-66
2023/05/30 04:35:32;;;;;;;3.20;2.40;;;;;;;19.73;81.42;98999.69;82157;1294;3011198;-68
2023/05/30 04:37:59;;;;;;;2.80;2.20;;;;;;;19.86;81.22;98994.36;82071;1294;3011336;-66
2023/05/30 04:40:27;;;;;;;3.10;2.70;;;;;;;19.70;80.80;98998.21;80876;1292;3055850;-71
2023/05/30 04:42:55;;;;;;;3.90;3.40;;;;;;;19.45;81.45;99001.44;82117;1292;3011434;-71
2023/05/30 04:45:28;;;;;;;4.50;3.00;;;;;;;19.15;82.54;99004.10;82145;1292;3011858;-74
2023/05/30 04:47:56;;;;;;;2.60;1.60;;;;;;;18.99;83.42;99001.34;80891;1294;3053401;-72
2023/05/30 04:50:24;;;;;;;2.90;2.00;;;;;;;19.34;82.53;99006.76;82155;1292;3012715;-67
2023/05/30 04:52:51;;;;;;;2.30;1.80;;;;;;;19.72;81.17;99005.88;82095;1292;3011083;-66
2023/05/30 04:55:19;;;;;;;4.60;2.40;;;;;;;19.71;80.91;99005.09;80866;1294;3057805;-64
2023/05/30 04:57:45;;;;;;;6.40;2.90;;;;;;;19.53;81.43;99006.77;82140;1292;3012784;-68
2023/05/30 05:00:15;;;;;;;4.20;3.10;;;;;;;19.41;81.58;99007.69;82107;1294;3011328;-72
2023/05/30 05:02:44;;;;;;;7.10;4.10;;;;;;;19.23;82.06;99014.37;80921;1293;3051583;-74
2023/05/30 05:05:10;;;;;;;2.60;1.80;;;;;;;19.09;82.51;99014.15;82147;1294;3013043;-63
2023/05/30 05:07:37;;;;;;;5.60;2.30;;;;;;;19.39;82.18;99013.16;82182;1291;3011384;-63
2023/05/30 05:10:05;;;;;;;4.30;2.60;;;;;;;19.89;80.61;99009.23;81011;1291;3056401;-71
2023/05/30 05:12:32;;;;;;;4.90;2.90;;;;;;;19.90;79.67;99008.17;82243;1291;3013188;-66
2023/05/30 05:15:03;;;;;;;6.10;2.90;;;;;;;19.73;80.12;99010.14;80972;1292;3049236;-72
2023/05/30 05:17:30;;;;;;;4.60;3.00;;;;;;;19.60;79.94;99009.27;82255;1292;3012480;-66
2023/05/30 05:19:56;;;;;;;6.40;3.70;;;;;;;19.36;80.86;99012.66;82290;1291;3011013;-63
2023/05/30 05:22:24;;;;;;;2.60;1.50;;;;;;;19.15;81.77;99010.89;80964;1292;3051349;-70
2023/05/30 05:24:51;;;;;;;4.00;2.30;;;;;;;19.47;81.58;99012.50;82246;1291;3011104;-68
2023/05/30 05:27:18;;;;;;;4.70;2.10;;;;;;;19.84;79.99;99016.31;82253;1292;3011304;-70
2023/05/30 05:29:46;;;;;;;4.10;2.70;;;;;;;19.84;79.31;99007.95;80977;1292;3050031;-67
2023/05/30 05:32:12;;;;;;;5.90;3.10;;;;;;;19.56;79.82;99011.63;82285;1292;3011225;-65
2023/05/30 05:34:40;;;;;;;6.00;4.20;;;;;;;19.26;80.83;99015.09;82233;1292;3011364;-66
2023/05/30 05:37:08;;;;;;;5.70;4.50;;;;;;;18.91;82.64;99016.04;80988;1292;3025979;-63
2023/05/30 05:39:34;;;;;;;4.10;2.50;;;;;;;18.75;83.44;99018.50;82095;1293;3012713;-66
2023/05/30 05:42:02;;;;;;;6.50;3.80;;;;;;;19.14;82.46;99015.80;82058;1292;3011348;-70
2023/05/30 05:44:30;;;;;;;5.00;3.50;;;;;;;19.55;80.95;99010.60;80857;1293;3048951;-74
2023/05/30 05:46:57;;;;;;;8.80;4.10;;;;;;;19.52;80.09;99010.79;82145;1294;3018142;-69
2023/05/30 05:49:23;;;;;;;7.30;5.00;;;;;;;19.35;80.45;99012.69;82056;1297;3011223;-68
2023/05/30 05:51:51;;;;;;;9.10;6.10;;;;;;;19.15;81.45;99008.42;80830;1293;3025501;-68
2023/05/30 05:54:17;;;;;;;10.40;6.60;;;;;;;18.92;82.56;99012.66;82144;1293;3013167;-67
2023/05/30 05:56:44;;;;;;;5.20;3.30;;;;;;;18.79;83.53;99007.95;82111;1293;3011348;-63
2023/05/30 05:59:12;;;;;;;9.20;4.50;;;;;;;19.27;81.97;99006.23;80831;1292;3027182;-65
2023/05/30 06:01:39;;;;;;;5.40;3.80;;;;;;;19.50;80.65;99001.73;82113;1294;3014015;-61
2023/05/30 06:04:10;;;;;;;5.80;3.50;;;;;;;19.58;80.37;98997.18;82083;1297;3011149;-68
2023/05/30 06:06:38;;;;;;;8.60;4.60;;;;;;;19.39;80.32;98992.89;80914;1291;3050629;-70
2023/05/30 06:09:05;;;;;;;8.40;6.00;;;;;;;19.07;81.64;98994.17;82108;1294;3018038;-71
2023/05/30 06:11:32;;;;;;;8.40;5.40;;;;;;;18.92;82.64;98988.74;82133;1292;3011257;-65
2023/05/30 06:14:00;;;;;;;4.50;2.90;;;;;;;18.85;82.75;98992.54;80832;1297;3049285;-65
2023/05/30 06:16:27;;;;;;;5.10;2.70;;;;;;;19.32;82.04;98991.54;82125;1293;3012606;-70
2023/05/30 06:18:53;;;;;;;5.10;3.40;;;;;;;19.77;80.12;98986.48;82077;1293;3011516;-65
2023/05/30 06:21:21;;;;;;;6.30;3.50;;;;;;;19.69;79.77;98988.46;80838;1293;3026373;-67
2023/05/30 06:23:48;;;;;;;5.10;3.40;;;;;;;19.54;80.13;98991.57;82125;1293;3012555;-63
2023/05/30 06:26:14;;;;;;;6.10;4.00;;;;;;;19.39;80.81;98985.14;82089;1293;3011200;-66
2023/05/30 06:28:42;;;;;;;8.60;4.70;;;;;;;19.23;81.30;98990.41;80809;1294;3026298;-64
2023/05/30 06:31:09;;;;;;;5.10;2.40;;;;;;;19.11;81.36;98993.42;82132;1293;3018359;-67
2023/05/30 06:33:36;;;;;;;5.90;2.70;;;;;;;19.46;80.86;98987.06;82057;1293;3011245;-65
2023/05/30 06:36:05;;;;;;;6.00;2.90;;;;;;;19.78;79.86;98985.44;80810;1295;3026771;-72
2023/05/30 06:38:32;;;;;;;6.30;3.00;;;;;;;19.72;79.50;98985.16;82220;1291;3011216;-71
2023/05/30 06:40:58;;;;;;;7.30;3.40;;;;;;;19.61;79.44;98982.23;82164;1292;3011404;-69
2023/05/30 06:43:26;;;;;;;8.50;3.80;;;;;;;19.45;79.80;98985.07;80802;1293;3050834;-66
2023/05/30 06:45:52;;;;;;;8.10;4.40;;;;;;;19.27;80.67;98985.16;82113;1293;3018330;-68
2023/05/30 06:48:19;;;;;;;6.20;2.70;;;;;;;19.06;81.87;98978.80;82079;1293;3011145;-67
2023/05/30 06:50:47;;;;;;;7.30;3.00;;;;;;;19.46;81.05;98981.79;80877;1292;3026440;-73
2023/05/30 06:53:14;;;;;;;6.80;3.10;;;;;;;19.94;78.96;98977.88;82136;1291;3012522;-74
2023/05/30 06:55:41;;;;;;;6.60;3.60;;;;;;;19.85;78.31;98976.79;82141;1292;3011083;-63
2023/05/30 06:58:08;;;;;;;7.20;3.90;;;;;;;19.63;78.95;98976.98;80926;1292;3026321;-64
2023/05/30 07:00:35;;;;;;;6.60;3.80;;;;;;;19.43;79.75;98978.86;82165;1294;3012484;-71
2023/05/30 07:03:02;;;;;;;9.10;3.80;;;;;;;19.15;81.07;98984.85;82073;1294;3011305;-70
2023/05/30 07:05:30;;;;;;;4.30;2.10;;;;;;;18.92;82.55;98990.39;80820;1294;3027084;-71
2023/05/30 07:07:57;;;;;;;4.80;2.50;;;;;;;19.22;81.69;98985.80;82155;1292;3018703;-67
2023/05/30 07:10:23;;;;;;;5.60;2.50;;;;;;;19.57;79.84;98986.83;82136;1292;3011385;-63
2023/05/30 07:12:52;;;;;;;4.00;2.80;;;;;;;19.63;79.56;98984.20;80949;1292;3026368;-66
2023/05/30 07:15:19;;;;;;;5.00;3.00;;;;;;;19.49;79.69;98985.14;82169;1292;3012355;-64
2023/05/30 07:17:45;;;;;;;5.90;3.60;;;;;;;19.26;80.36;98988.60;82054;1293;3011284;-67
2023/05/30 07:20:14;;;;;;;6.30;3.70;;;;;;;19.09;81.27;98985.79;80851;1292;3051732;-67
2023/05/30 07:22:40;;;;;;;5.20;2.20;;;;;;;18.87;82.55;98991.78;82122;1293;3012789;-63
2023/05/30 07:25:07;;;;;;;6.90;3.20;;;;;;;19.28;81.60;98998.68;82053;1293;3011597;-70
2023/05/30 07:27:35;;;;;;;5.70;3.00;;;;;;;19.72;80.03;98998.52;80815;1292;3049375;-69
2023/05/30 07:30:02;;;;;;;5.90;3.60;;;;;;;19.73;79.51;99000.27;82096;1294;3012732;-69
2023/05/30 07:32:30;;;;;;;7.70;3.80;;;;;;;19.58;79.68;99002.15;82076;1297;3012210;-68
2023/05/30 07:34:58;;;;;;;14.20;4.00;;;;;;;19.42;80.60;99002.56;80879;1292;3051577;-70
2023/05/30 07:37:24;;;;;;;8.60;4.30;;;;;;;19.20;81.20;99001.48;82126;1294;3012369;-64
2023/05/30 07:39:51;;;;;;;4.80;2.40;;;;;;;18.94;82.37;98997.20;82121;1292;3011295;-64
2023/05/30 07:42:19;;;;;;;6.40;2.80;;;;;;;19.28;81.79;98998.49;80890;1294;3026226;-69
2023/05/30 07:44:45;;;;;;;5.80;3.00;;;;;;;19.61;80.98;98994.53;82153;1293;3012975;-67
2023/05/30 07:47:12;;;;;;;7.30;3.80;;;;;;;19.68;80.34;98989.21;82074;1294;3011170;-68
2023/05/30 07:49:40;;;;;;;6.40;3.70;;;;;;;19.62;80.32;98992.90;80946;1292;3026804;-67
2023/05/30 07:52:07;;;;;;;7.00;3.90;;;;;;;19.38;81.04;98989.98;82204;1292;3012868;-68
2023/05/30 07:54:34;;;;;;;9.60;4.40;;;;;;;19.22;81.64;98993.11;82116;1294;3011431;-68
2023/05/30 07:57:02;;;;;;;3.50;2.10;;;;;;;19.11;82.04;98993.69;80874;1295;3025411;-68
2023/05/30 07:59:28;;;;;;;5.30;2.50;;;;;;;19.38;81.53;98992.10;82199;1295;3018143;-67
2023/05/30 08:01:55;;;;;;;5.30;2.70;;;;;;;19.88;79.91;98992.73;82195;1292;3011666;-68
2023/05/30 08:04:22;;;;;;;6.00;3.60;;;;;;;19.91;79.78;98989.84;80887;1293;3026648;-69
2023/05/30 08:06:49;;;;;;;6.20;3.30;;;;;;;19.76;79.96;98989.97;82207;1293;3013017;-65
2023/05/30 08:09:16;;;;;;;5.50;3.50;;;;;;;19.55;80.51;98994.88;82220;1292;3011281;-63
2023/05/30 08:11:44;;;;;;;6.40;3.60;;;;;;;19.17;81.94;98998.46;80874;1292;3026793;-69
2023/05/30 08:14:11;;;;;;;3.30;2.20;;;;;;;19.12;82.10;98998.98;82202;1293;3012867;-69
2023/05/30 08:16:39;;;;;;;4.70;2.10;;;;;;;19.45;81.64;99002.41;82159;1292;3011410;-63
2023/05/30 08:19:06;;;;;;;4.30;2.20;;;;;;;19.93;79.64;98999.37;80958;1293;3051726;-67
2023/05/30 08:21:36;;;;;;;5.60;2.90;;;;;;;19.96;79.42;99005.59;82210;1291;3012477;-69
2023/05/30 08:24:02;;;;;;;8.30;2.50;;;;;;;19.88;79.22;99000.83;82173;1294;3011083;-70
2023/05/30 08:26:31;;;;;;;8.10;3.00;;;;;;;19.54;80.32;99003.30;80923;1292;3049190;-68
2023/05/30 08:28:58;;;;;;;3.90;3.00;;;;;;;19.32;81.36;99001.98;82196;1294;3012691;-70
2023/05/30 08:31:25;;;;;;;2.70;1.60;;;;;;;19.18;82.02;99006.34;82214;1292;3011449;-68
2023/05/30 08:33:53;;;;;;;3.00;2.00;;;;;;;19.50;81.62;99006.13;80942;1292;3050549;-66
2023/05/30 08:36:21;;;;;;;6.60;2.60;;;;;;;19.98;79.91;99005.42;82185;1292;3012644;-72
2023/05/30 08:38:53;;;;;;;4.30;2.30;;;;;;;20.03;79.54;99000.98;82168;1295;3011339;-71
2023/05/30 08:41:21;;;;;;;4.00;2.30;;;;;;;19.87;80.01;98995.02;80920;1294;3050619;-74
2023/05/30 08:43:49;;;;;;;4.30;2.80;;;;;;;19.65;80.59;98987.01;82225;1295;3012994;-66
2023/05/30 08:46:16;;;;;;;5.60;3.20;;;;;;;19.42;81.67;98988.55;82134;1292;3011238;-61
2023/05/30 08:48:44;;;;;;;3.20;2.10;;;;;;;19.29;82.66;98985.34;80887;1293;3026703;-67
2023/05/30 08:51:15;;;;;;;4.10;2.80;;;;;;;19.63;82.01;98976.71;82236;1292;3018602;-71
2023/05/30 08:53:48;;;;;;;4.30;3.00;;;;;;;20.03;80.83;98971.31;80944;1292;3052341;-71
2023/05/30 08:56:32;;;;;;;;;;;;;;;20.05;79.71;98978.55;82112;1294;3011299;-68
2023/05/30 08:59:00;;;;;;;3.80;2.80;;;;;;;19.80;80.74;98977.42;80884;1294;3052422;-69
2023/05/30 09:01:27;;;;;;;3.70;2.90;;;;;;;19.52;81.42;98969.80;82195;1292;3018122;-66
2023/05/30 09:03:53;;;;;;;5.50;2.90;;;;;;;19.30;82.34;98975.39;82093;1294;3011413;-72
2023/05/30 09:06:21;;;;;;;2.00;1.70;;;;;;;18.98;83.18;98986.67;80743;1291;3026427;-72
2023/05/30 09:08:48;;;;;;;2.40;2.20;;;;;;;19.46;82.60;98994.38;82077;1293;3017876;-65
2023/05/30 09:11:15;;;;;;;2.20;2.00;;;;;;;19.87;80.41;99003.23;82020;1295;3011284;-64
2023/05/30 09:13:46;;;;;;;3.00;2.40;;;;;;;19.89;80.03;99005.13;80822;1294;3026177;-71
2023/05/30 09:16:12;;;;;;;3.00;2.50;;;;;;;19.79;80.35;99002.63;82054;1293;3011520;-70
2023/05/30 09:18:41;;;;;;;3.60;2.70;;;;;;;19.62;80.39;98994.96;81620;1293;3011621;-70
2023/05/30 09:21:08;;;;;;;4.60;2.90;;;;;;;19.44;80.87;98994.75;82101;1294;3017878;-73
2023/05/30 09:23:36;;;;;;;3.20;1.60;;;;;;;19.27;81.72;99000.92;82077;1293;3011519;-65
2023/05/30 09:26:07;;;;;;;3.90;2.70;;;;;;;19.61;81.22;98998.59;80649;1293;3053336;-64
2023/05/30 09:28:34;;;;;;;3.70;2.70;;;;;;;20.02;79.72;98997.49;82094;1294;3011389;-65
2023/05/30 09:31:04;;;;;;;4.80;3.00;;;;;;;20.18;78.80;99000.60;81534;1294;3011368;-66
2023/05/30 09:33:40;;;;;;;4.40;3.60;;;;;;;20.00;79.13;99005.39;82062;1294;3017922;-66
2023/05/30 09:36:08;;;;;;;5.40;3.90;;;;;;;19.78;79.94;99007.30;80882;1294;3052189;-68
2023/05/30 09:38:34;;;;;;;7.70;4.30;;;;;;;19.61;80.53;99005.72;82147;1294;3012549;-68
2023/05/30 09:41:02;;;;;;;4.40;2.30;;;;;;;19.48;81.02;99001.21;82084;1293;3011189;-69
2023/05/30 09:43:34;;;;;;;4.10;2.60;;;;;;;19.87;80.01;99001.98;80821;1294;3049520;-68
2023/05/30 09:46:05;;;;;;;6.10;3.00;;;;;;;20.32;78.13;99004.03;82108;1294;3011204;-68
2023/05/30 09:48:32;;;;;;;5.10;3.80;;;;;;;20.33;77.79;99005.23;80877;1294;3054043;-71
2023/05/30 09:51:00;;;;;;;5.00;4.50;;;;;;;20.16;78.43;98994.79;82134;1294;3012691;-66
2023/05/30 09:53:28;;;;;;;6.20;4.60;;;;;;;19.94;79.14;98989.61;82123;1294;3011268;-66
2023/05/30 09:55:56;;;;;;;6.30;5.10;;;;;;;19.76;79.91;98987.52;80853;1292;3048870;-68
2023/05/30 09:58:23;;;;;;;5.40;4.60;;;;;;;19.60;80.76;98993.04;82119;1293;3012648;-72
2023/05/30 10:00:53;;;;;;;3.00;2.20;;;;;;;19.39;82.18;98995.66;82090;1292;3011518;-70
2023/05/30 10:03:42;;;;;;;5.90;2.70;;;;;;;19.81;81.62;98994.61;80841;1293;3052919;-67
2023/05/30 10:06:15;;;;;;;4.00;3.00;;;;;;;20.41;78.75;98996.88;80887;1294;3070239;-64
2023/05/30 10:08:44;;;;;;;4.30;3.30;;;;;;;20.34;77.88;98995.69;82116;1295;3011295;-68
2023/05/30 10:11:13;;;;;;;6.40;4.30;;;;;;;20.06;78.92;98990.13;80814;1294;3056053;-70
2023/05/30 10:13:40;;;;;;;5.10;3.50;;;;;;;19.93;79.48;98988.48;82133;1293;3012598;-70
2023/05/30 10:16:11;;;;;;;10.40;4.10;;;;;;;19.77;79.93;98985.17;82076;1297;3011415;-65
2023/05/30 10:18:41;;;;;;;4.50;1.90;;;;;;;19.70;80.28;98984.59;80928;1292;3053109;-66
2023/05/30 10:21:08;;;;;;;6.30;2.10;;;;;;;20.09;79.56;98980.95;82122;1292;3011253;-68
2023/05/30 10:23:36;;;;;;;4.50;3.50;;;;;;;20.47;77.94;98982.31;81569;1293;3011925;-67
2023/05/30 10:26:03;;;;;;;5.80;4.80;;;;;;;20.40;77.69;98975.14;82110;1292;3012458;-65
2023/05/30 10:28:29;;;;;;;8.40;5.10;;;;;;;20.05;79.04;98970.89;82014;1293;3011534;-70
2023/05/30 10:30:57;;;;;;;9.80;5.80;;;;;;;19.85;79.94;98967.70;80831;1294;3026757;-68
2023/05/30 10:33:25;;;;;;;7.70;5.50;;;;;;;19.74;80.57;98964.98;82179;1297;3012556;-72
2023/05/30 10:35:51;;;;;;;8.60;5.50;;;;;;;19.75;80.90;98963.08;82040;1297;3011553;-71
2023/05/30 10:38:19;;;;;;;3.40;2.40;;;;;;;19.63;81.64;98960.58;80842;1292;3069150;-67
2023/05/30 10:40:57;;;;;;;5.40;2.80;;;;;;;20.18;79.31;98956.48;82151;1293;3013273;-70
2023/05/30 10:43:43;;;;;;;5.80;3.50;;;;;;;20.58;77.42;98954.41;80800;1292;3049241;-69
2023/05/30 10:46:17;;;;;;;4.00;3.60;;;;;;;20.76;76.56;98961.36;80910;1292;3053648;-64
2023/05/30 10:48:44;;;;;;;6.20;4.10;;;;;;;20.74;76.54;98965.51;82207;1291;3011381;-71
2023/05/30 10:51:13;;;;;;;5.40;4.30;;;;;;;20.53;77.13;98968.52;80919;1297;3051487;-67
2023/05/30 10:53:44;;;;;;;6.00;4.40;;;;;;;20.36;77.64;98956.38;82198;1295;3013039;-71
2023/05/30 10:56:31;;;;;;;5.60;4.70;;;;;;;20.18;77.99;98954.76;80968;1291;3051129;-70
2023/05/30 10:58:59;;;;;;;5.20;2.20;;;;;;;20.03;78.74;98956.36;80866;1292;3056083;-71
2023/05/30 11:01:30;;;;;;;4.10;2.90;;;;;;;20.66;77.17;98962.06;82163;1294;3012965;-65
2023/05/30 11:04:05;;;;;;;3.60;3.30;;;;;;;21.17;75.60;98959.51;80878;1292;3049107;-67
2023/05/30 11:06:44;;;;;;;4.80;4.10;;;;;;;21.09;74.73;98962.02;81648;1295;3011647;-67
2023/05/30 11:09:16;;;;;;;5.70;3.80;;;;;;;21.03;75.10;98962.67;80955;1292;3052634;-68
2023/05/30 11:11:53;;;;;;;4.20;3.80;;;;;;;20.83;75.64;98958.10;82214;1292;3010998;-69
2023/05/30 11:14:32;;;;;;;4.70;3.90;;;;;;;20.61;76.52;98961.91;80961;1291;3069103;-71
2023/05/30 11:17:03;;;;;;;6.80;4.40;;;;;;;20.30;77.56;98961.74;80866;1296;3051388;-70
2023/05/30 11:19:37;;;;;;;2.70;2.20;;;;;;;20.07;78.86;98960.70;82201;1293;3011394;-65
2023/05/30 11:22:17;;;;;;;3.70;2.30;;;;;;;20.43;77.83;98963.36;80847;1292;3050435;-65
2023/05/30 11:24:45;;;;;;;3.20;2.80;;;;;;;20.92;75.84;98962.32;80835;1295;3053981;-66
2023/05/30 11:27:14;;;;;;;4.90;3.70;;;;;;;20.94;75.29;98959.70;82139;1299;3018108;-65